Wind From: 20-06-2018 11:00 Until: 22:00 warning for: Wind Level: Yellow info button
suomi:
Tuulivaroitus maa-alueille: Länsituuli on voimakasta keskipäivästä alkaen, tuulen nopeus puuskissa 15 m/s.

svenska:
Vindvarning för landområden: Från och med middagen är den västliga vinden kraftigt, i vindbyarna 15 m/s.

english:
Wind warning for land areas: From noon on, strong winds from west may bring strong gusts of 15 m/s. 


Thunder radar more information blitzortung!


Löydät sääaseman tiedot myös:

European Weather Network

Finland Weather Exchange

Weather Underground

AWEKAS



Weather Underground säähistoriasivu

Päivittäin yhteenveto Elokuu 12, 2017 Yksiköt:  Englantilaiset    Metriset   Molemmat
« Edellinen Päivä
Seuraava Päivä »
Päivittäin Viikoittain Kuukausittain Vuosittain Mukautettu
  Korkea: Matala: Keskiarvo:
Lämpötila: TemperatureC °F 14.4 °F 17.4 °F
Kastepiste: DewpointC °F 12.5 °F 14.9 °F
Kosteus: Humidity % 74 % 84 %
Tuulen nopeus: WindSpeedKMH mph 0.0 mph 2.6 mph
Tuulenpuuska: WindSpeedGustKMH mph - -
Tuuli:- - SSW
Ilmanpaine: PressurehPa in 999.2 in -
Sade: 0.3 in    
Historical Graphs
 
 
Taulukkotiedot Elokuu 12, 2017
Aika Lämpötila Kastepiste Ilmanpaine Tuuli Tuulen nopeus Tuulenpuuska Kosteus Sademäärä (tunneittain)
TemperatureC °F DewpointC °F PressurehPa in Calm     Humidity % HourlyPrecipMM in
00:00 16.2 °F 12.6 °F 1007.0 in SSW 1.6 mph 11.3 mph 79 % 0.0 in
00:15 16.2 °F 12.7 °F 1007.0 in South 1.6 mph 8.0 mph 80 % 0.0 in
00:30 16.1 °F 12.7 °F 1006.7 in SSW 3.2 mph 11.3 mph 80 % 0.0 in
00:45 16.1 °F 12.6 °F 1006.7 in SSW 1.6 mph 12.9 mph 80 % 0.0 in
01:00 15.8 °F 12.5 °F 1006.7 in SSW 1.6 mph 11.3 mph 81 % 0.0 in
01:15 15.6 °F 12.5 °F 1006.3 in SSW 3.2 mph 9.7 mph 82 % 0.0 in
01:30 15.4 °F 12.5 °F 1006.3 in SSW 1.6 mph 6.4 mph 83 % 0.0 in
01:45 15.1 °F 12.6 °F 1006.3 in Calm   4.8 mph 85 % 0.0 in
02:00 14.8 °F 12.5 °F 1006.3 in SW 1.6 mph 6.4 mph 86 % 0.0 in
02:15 14.8 °F 12.6 °F 1006.0 in SSW 1.6 mph 8.0 mph 87 % 0.0 in
02:30 14.7 °F 12.8 °F 1006.0 in South 1.6 mph 8.0 mph 88 % 0.0 in
02:45 14.7 °F 12.7 °F 1006.0 in South 1.6 mph 11.3 mph 88 % 0.0 in
03:00 14.7 °F 12.9 °F 1006.0 in South 3.2 mph 12.9 mph 89 % 0.0 in
03:15 14.7 °F 12.9 °F 1006.0 in SSW 3.2 mph 17.7 mph 89 % 0.0 in
03:30 14.8 °F 13.2 °F 1006.0 in SSW 3.2 mph 11.3 mph 90 % 0.0 in
03:45 14.8 °F 13.4 °F 1005.6 in SSW 4.8 mph 12.9 mph 91 % 0.0 in
04:00 14.8 °F 13.3 °F 1006.0 in SSW 3.2 mph 8.0 mph 91 % 0.0 in
04:15 14.8 °F 13.3 °F 1005.6 in SSW 3.2 mph 11.3 mph 91 % 0.0 in
04:30 14.7 °F 13.4 °F 1005.6 in SSW 3.2 mph 9.7 mph 92 % 0.0 in
04:45 14.6 °F 13.3 °F 1005.6 in SSW 1.6 mph 11.3 mph 92 % 0.0 in
05:00 14.6 °F 13.4 °F 1006.0 in SSW 3.2 mph 11.3 mph 93 % 0.0 in
05:15 14.4 °F 13.3 °F 1006.0 in SSW 1.6 mph 9.7 mph 93 % 0.0 in
05:30 14.4 °F 13.5 °F 1006.0 in SSW 3.2 mph 11.3 mph 94 % 0.0 in
05:45 14.5 °F 13.5 °F 1005.6 in SSW 4.8 mph 11.3 mph 94 % 0.0 in
06:00 14.4 °F 13.5 °F 1005.6 in South 1.6 mph 8.0 mph 94 % 0.0 in
06:15 14.4 °F 13.5 °F 1005.3 in SSW 1.6 mph 11.3 mph 94 % 0.0 in
06:30 14.7 °F 13.7 °F 1005.3 in SSW 3.2 mph 11.3 mph 94 % 0.0 in
06:45 15.0 °F 13.9 °F 1005.0 in SSW 4.8 mph 14.5 mph 93 % 0.0 in
07:00 15.4 °F 14.1 °F 1005.0 in South 4.8 mph 12.9 mph 92 % 0.0 in
07:15 15.6 °F 14.1 °F 1005.0 in South 3.2 mph 12.9 mph 91 % 0.0 in
07:30 15.6 °F 14.3 °F 1004.6 in South 3.2 mph 11.3 mph 92 % 0.0 in
07:45 15.8 °F 14.3 °F 1004.6 in SSW 3.2 mph 11.3 mph 91 % 0.0 in
08:00 16.2 °F 14.8 °F 1004.3 in SSW 4.8 mph 12.9 mph 91 % 0.0 in
08:15 16.6 °F 14.9 °F 1004.6 in SSW 8.0 mph 20.9 mph 90 % 0.0 in
08:30 16.7 °F 15.0 °F 1004.3 in South 4.8 mph 14.5 mph 90 % 0.0 in
08:45 16.8 °F 15.0 °F 1004.6 in SSW 6.4 mph 16.1 mph 89 % 0.0 in
09:00 17.2 °F 15.2 °F 1004.3 in SSW 8.0 mph 29.0 mph 88 % 0.0 in
09:15 17.3 °F 15.1 °F 1004.6 in SSW 8.0 mph 22.5 mph 87 % 0.0 in
09:30 17.4 °F 15.4 °F 1004.3 in SSW 6.4 mph 19.3 mph 88 % 0.0 in
09:45 17.7 °F 15.5 °F 1004.3 in SSW 6.4 mph 20.9 mph 87 % 0.0 in
10:00 18.1 °F 15.7 °F 1004.3 in SSW 8.0 mph 19.3 mph 86 % 0.0 in
10:15 18.4 °F 15.7 °F 1003.9 in SSW 9.7 mph 22.5 mph 84 % 0.0 in
10:30 18.9 °F 15.8 °F 1004.3 in SSW 8.0 mph 20.9 mph 82 % 0.0 in
10:45 19.4 °F 15.8 °F 1003.9 in SSW 9.7 mph 25.7 mph 80 % 0.0 in
11:00 19.8 °F 15.8 °F 1003.6 in SSW 8.0 mph 25.7 mph 78 % 0.0 in
11:15 20.3 °F 15.8 °F 1003.6 in South 4.8 mph 19.3 mph 75 % 0.0 in
11:30 20.7 °F 16.1 °F 1003.3 in SSW 6.4 mph 19.3 mph 75 % 0.0 in
11:45 20.2 °F 15.8 °F 1003.6 in South 6.4 mph 19.3 mph 76 % 0.0 in
12:00 19.9 °F 15.6 °F 1003.9 in SSW 6.4 mph 14.5 mph 76 % 0.0 in
12:15 20.2 °F 15.6 °F 1004.3 in SSW 6.4 mph 16.1 mph 75 % 0.0 in
12:30 20.3 °F 15.5 °F 1004.3 in SSW 8.0 mph 17.7 mph 74 % 0.0 in
12:45 19.9 °F 15.8 °F 1004.6 in SSW 8.0 mph 19.3 mph 77 % 0.0 in
13:00 19.0 °F 15.9 °F 1004.3 in SSW 6.4 mph 19.3 mph 82 % 0.3 in
13:15 18.8 °F 15.9 °F 1004.3 in SSW 4.8 mph 16.1 mph 83 % 0.3 in
13:30 19.0 °F 15.9 °F 1004.3 in SSW 6.4 mph 17.7 mph 82 % 0.3 in
13:45 19.3 °F 16.1 °F 1004.3 in SSW 6.4 mph 16.1 mph 82 % 0.3 in
14:00 19.5 °F 16.2 °F 1004.3 in South 4.8 mph 17.7 mph 81 % 0.0 in
14:15 19.6 °F 15.6 °F 1004.3 in Calm     78 % 0.0 in
14:30 19.5 °F 16.0 °F 1004.3 in Calm     80 % 0.0 in
14:45 19.6 °F 15.7 °F 1003.9 in Calm     78 % 0.0 in
15:00 19.9 °F 15.9 °F 1003.9 in Calm     78 % 0.0 in
15:15 19.7 °F 15.7 °F 1003.9 in Calm     78 % 0.0 in
15:30 19.4 °F 15.7 °F 1003.9 in Calm     79 % 0.0 in
15:45 19.3 °F 15.7 °F 1003.6 in Calm     80 % 0.0 in
16:00 19.2 °F 15.8 °F 1003.6 in Calm     81 % 0.0 in
16:15 19.2 °F 16.0 °F 1003.6 in Calm     82 % 0.0 in
16:30 19.2 °F 16.2 °F 1003.3 in Calm     83 % 0.0 in
16:45 19.4 °F 16.3 °F 1002.9 in Calm     82 % 0.0 in
17:00 19.7 °F 16.4 °F 1002.9 in Calm     81 % 0.0 in
17:15 19.8 °F 16.4 °F 1002.9 in Calm     81 % 0.0 in
17:30 19.7 °F 16.6 °F 1002.6 in Calm     82 % 0.0 in
17:45 19.8 °F 16.7 °F 1002.6 in Calm     82 % 0.0 in
18:00 20.3 °F 17.0 °F 1002.3 in Calm     81 % 0.0 in
18:15 20.4 °F 16.8 °F 1001.9 in Calm     80 % 0.0 in
18:30 20.0 °F 16.8 °F 1001.9 in Calm     82 % 0.0 in
18:45 19.8 °F 16.9 °F 1002.3 in Calm     83 % 0.0 in
19:00 19.7 °F 16.9 °F 1001.9 in Calm     84 % 0.0 in
19:15 19.7 °F 16.9 °F 1001.6 in Calm     84 % 0.0 in
19:30 19.6 °F 17.0 °F 1001.9 in Calm     85 % 0.0 in
19:45 19.5 °F 16.9 °F 1001.6 in Calm     85 % 0.0 in
20:00 19.4 °F 16.7 °F 1001.2 in Calm     84 % 0.0 in
20:15 19.2 °F 16.5 °F 1001.2 in Calm     84 % 0.0 in
20:30 19.0 °F 16.6 °F 1000.9 in Calm     86 % 0.0 in
20:45 18.8 °F 16.2 °F 1000.6 in Calm     85 % 0.0 in
21:00 18.7 °F 16.3 °F 1000.6 in Calm     86 % 0.0 in
21:15 18.6 °F 16.2 °F 1000.2 in Calm     86 % 0.0 in
21:30 18.4 °F 16.0 °F 999.5 in Calm     86 % 0.0 in
21:45 18.2 °F 16.0 °F 999.5 in Calm     87 % 0.0 in
22:00 17.9 °F 15.9 °F 999.2 in Calm     88 % 0.0 in
22:15 17.7 °F 15.7 °F 999.5 in Calm     88 % 0.0 in
22:30 17.5 °F 15.5 °F 999.9 in Calm     88 % 0.0 in
22:45 17.4 °F 15.4 °F 999.5 in Calm     88 % 0.0 in
23:00 17.2 °F 15.4 °F 999.9 in Calm     89 % 0.0 in
23:15 16.9 °F 15.1 °F 999.5 in Calm     89 % 0.0 in
23:30 16.9 °F 15.1 °F 999.5 in Calm     89 % 0.0 in
23:45 16.8 °F 14.8 °F 999.5 in Calm     88 % 0.0 in
Esan sääasema
Terveisin Weather Underground - 2.75 mb

Alkuperäinen skripti  Jim McMurry - jmcmurry@mwt.net Sovitettu myös templatelle  Wim van der Kuil - Leuven-Template.eu

Laitteet joita käytämme:

Sääasema
Davis VP2

Sääasemaohjelma
Cumulus

Sääaseman tietokone
Asus EeePC

Palveluntarjoaja
Suncomet

Davis VP2

Cumulus

Asus EeePC

Suncomet